createdAt,value
2023-02-19T00:01:51.446Z,97986.13
2023-02-19T00:04:36.369Z,97987.91
2023-02-19T00:07:21.313Z,97990.66
2023-02-19T00:10:06.652Z,97991.03
2023-02-19T00:12:52.164Z,98000.03
2023-02-19T00:15:37.072Z,97997.09
2023-02-19T00:18:22.772Z,98008.22
2023-02-19T00:21:07.764Z,98015.25
2023-02-19T00:23:55.624Z,98015.25
2023-02-19T00:26:42.450Z,98010.75
2023-02-19T00:29:27.856Z,98011.53
2023-02-19T00:32:12.705Z,98022.25
2023-02-19T00:34:57.466Z,98017.59
2023-02-19T00:37:42.437Z,98014.44
2023-02-19T00:40:28.088Z,98021.88
2023-02-19T00:43:12.883Z,98034.16
2023-02-19T00:45:57.876Z,98027.34
2023-02-19T00:48:42.849Z,98030.84
2023-02-19T00:51:30.134Z,98032.63
2023-02-19T00:54:15.410Z,98047.63
2023-02-19T00:57:00.507Z,98047.22
2023-02-19T00:59:45.162Z,98050.56
2023-02-19T01:02:30.203Z,98031.81
2023-02-19T01:05:14.704Z,98039.81
2023-02-19T01:07:59.292Z,98047.41
2023-02-19T01:10:44.213Z,98048.41
2023-02-19T01:13:29.880Z,98050.75
2023-02-19T01:16:18.561Z,98056.00
2023-02-19T01:19:03.130Z,98052.91
2023-02-19T01:21:47.889Z,98056.22
2023-02-19T01:24:32.436Z,98066.94
2023-02-19T01:27:17.570Z,98068.13
2023-02-19T01:30:03.230Z,98061.66
2023-02-19T01:32:48.043Z,98061.88
2023-02-19T01:35:33.723Z,98062.84
2023-02-19T01:38:18.963Z,98063.44
2023-02-19T01:41:06.775Z,98061.47
2023-02-19T01:44:10.743Z,98061.28
2023-02-19T01:46:58.370Z,98070.25
2023-02-19T01:49:54.254Z,98062.81
2023-02-19T01:52:39.206Z,98076.50
2023-02-19T01:55:24.559Z,98076.50
2023-02-19T01:58:10.250Z,98091.88
2023-02-19T02:00:56.516Z,98090.34
2023-02-19T02:03:46.515Z,98087.00
2023-02-19T02:06:37.639Z,98083.84
2023-02-19T02:09:49.691Z,98082.50
2023-02-19T02:12:34.638Z,98081.13
2023-02-19T02:15:19.224Z,98084.81
2023-02-19T02:18:20.569Z,98078.75
2023-02-19T02:21:16.873Z,98094.16
2023-02-19T02:24:17.611Z,98102.72
2023-02-19T02:27:32.050Z,98108.97
2023-02-19T02:30:31.135Z,98115.97
2023-02-19T02:33:26.606Z,98118.47
2023-02-19T02:36:19.418Z,98127.84
2023-02-19T02:39:08.557Z,98118.47
2023-02-19T02:42:16.629Z,98100.72
2023-02-19T02:45:35.331Z,98100.31
2023-02-19T02:48:31.104Z,98106.16
2023-02-19T02:51:15.903Z,98117.84
2023-02-19T02:54:41.746Z,98122.34
2023-02-19T02:57:29.798Z,98126.03
2023-02-19T03:01:21.011Z,98125.47
2023-02-19T03:04:12.721Z,98132.88
2023-02-19T03:07:03.067Z,98135.97
2023-02-19T03:09:49.714Z,98134.97
2023-02-19T03:12:56.949Z,98133.03
2023-02-19T03:16:05.804Z,98139.47
2023-02-19T03:19:12.645Z,98140.63
2023-02-19T03:22:22.005Z,98143.31
2023-02-19T03:25:30.190Z,98148.59
2023-02-19T03:28:40.588Z,98147.22
2023-02-19T03:31:29.195Z,98146.69
2023-02-19T03:34:26.039Z,98143.75
2023-02-19T03:37:35.504Z,98157.22
2023-02-19T03:40:24.307Z,98171.31
2023-02-19T03:43:43.233Z,98162.41
2023-02-19T03:46:46.105Z,98156.94
2023-02-19T03:49:55.424Z,98145.28
2023-02-19T03:53:05.649Z,98151.53
2023-02-19T03:56:13.491Z,98149.03
2023-02-19T03:59:26.067Z,98152.19
2023-02-19T04:02:23.132Z,98160.19
2023-02-19T04:05:15.181Z,98164.72
2023-02-19T04:08:08.538Z,98169.38
2023-02-19T04:10:59.855Z,98162.97
2023-02-19T04:13:58.327Z,98173.69
2023-02-19T04:16:49.951Z,98169.59
2023-02-19T04:19:39.790Z,98165.13
2023-02-19T04:22:25.850Z,98163.94
2023-02-19T04:25:10.586Z,98164.56
2023-02-19T04:27:55.553Z,98169.03
2023-02-19T04:30:40.394Z,98180.75
2023-02-19T04:33:25.349Z,98180.16
2023-02-19T04:36:11.213Z,98185.25
2023-02-19T04:38:56.014Z,98193.81
2023-02-19T04:41:41.094Z,98192.44
2023-02-19T04:44:25.882Z,98205.50
2023-02-19T04:47:10.539Z,98209.63
2023-02-19T04:49:55.291Z,98206.50
2023-02-19T04:52:40.076Z,98208.03
2023-02-19T04:55:24.919Z,98216.22
2023-02-19T04:58:09.579Z,98213.91
2023-02-19T05:00:54.575Z,98214.06
2023-02-19T05:03:39.979Z,98204.50
2023-02-19T05:06:25.120Z,98207.25
2023-02-19T05:09:10.112Z,98205.13
2023-02-19T05:11:55.223Z,98206.50
2023-02-19T05:14:40.363Z,98208.66
2023-02-19T05:17:25.417Z,98214.31
2023-02-19T05:20:10.537Z,98220.78
2023-02-19T05:22:55.315Z,98218.63
2023-02-19T05:25:39.647Z,98215.31
2023-02-19T05:28:33.546Z,98217.28
2023-02-19T05:31:19.356Z,98228.59
2023-02-19T05:34:04.221Z,98217.47
2023-02-19T05:36:48.756Z,98227.03
2023-02-19T05:39:33.547Z,98216.69
2023-02-19T05:42:18.319Z,98214.31
2023-02-19T05:45:03.374Z,98212.16
2023-02-19T05:47:47.666Z,98217.56
2023-02-19T05:50:34.384Z,98208.94
2023-02-19T05:53:29.966Z,98212.44
2023-02-19T05:56:37.864Z,98221.34
2023-02-19T05:59:24.727Z,98229.16
2023-02-19T06:02:09.813Z,98235.78
2023-02-19T06:04:54.820Z,98234.44
2023-02-19T06:07:41.014Z,98229.38
2023-02-19T06:10:27.601Z,98239.16
2023-02-19T06:13:12.334Z,98231.34
2023-02-19T06:15:57.486Z,98237.41
2023-02-19T06:18:42.295Z,98243.72
2023-02-19T06:21:27.102Z,98247.03
2023-02-19T06:24:12.432Z,98249.41
2023-02-19T06:26:57.932Z,98255.28
2023-02-19T06:29:42.618Z,98244.56
2023-02-19T06:32:27.712Z,98251.44
2023-02-19T06:35:12.742Z,98248.72
2023-02-19T06:37:57.745Z,98256.53
2023-02-19T06:40:43.071Z,98262.41
2023-02-19T06:43:27.659Z,98259.88
2023-02-19T06:46:12.838Z,98259.28
2023-02-19T06:48:57.885Z,98258.13
2023-02-19T06:51:42.991Z,98254.41
2023-02-19T06:54:27.980Z,98257.16
2023-02-19T06:57:12.834Z,98260.28
2023-02-19T06:59:57.299Z,98263.22
2023-02-19T07:02:41.776Z,98266.19
2023-02-19T07:05:26.777Z,98264.03
2023-02-19T07:08:11.501Z,98272.22
2023-02-19T07:10:58.113Z,98269.31
2023-02-19T07:13:42.792Z,98251.34
2023-02-19T07:16:27.878Z,98254.09
2023-02-19T07:19:15.213Z,98259.94
2023-02-19T07:22:00.176Z,98255.66
2023-02-19T07:24:47.584Z,98249.59
2023-02-19T07:27:32.762Z,98244.72
2023-02-19T07:30:18.133Z,98257.59
2023-02-19T07:33:02.571Z,98249.63
2023-02-19T07:35:48.876Z,98255.06
2023-02-19T07:38:34.019Z,98253.50
2023-02-19T07:41:19.068Z,98254.47
2023-02-19T07:44:05.528Z,98243.56
2023-02-19T07:46:50.122Z,98248.03
2023-02-19T07:49:35.048Z,98252.16
2023-02-19T07:52:20.098Z,98255.28
2023-02-19T07:55:05.238Z,98246.88
2023-02-19T07:57:50.271Z,98239.84
2023-02-19T08:00:35.055Z,98238.47
2023-02-19T08:03:19.999Z,98236.50
2023-02-19T08:06:05.408Z,98229.47
2023-02-19T08:08:50.752Z,98231.41
2023-02-19T08:11:54.252Z,98216.94
2023-02-19T08:14:39.347Z,98236.09
2023-02-19T08:17:24.075Z,98228.06
2023-02-19T08:20:09.699Z,98213.75
2023-02-19T08:22:54.522Z,98217.47
2023-02-19T08:25:41.177Z,98220.22
2023-02-19T08:28:26.200Z,98235.81
2023-02-19T08:31:11.780Z,98254.63
2023-02-19T08:33:57.022Z,98244.47
2023-02-19T08:36:41.954Z,98239.56
2023-02-19T08:39:26.828Z,98233.09
2023-02-19T08:42:11.826Z,98224.19
2023-02-19T08:44:56.545Z,98222.44
2023-02-19T08:47:41.169Z,98224.41
2023-02-19T08:50:26.717Z,98217.13
2023-02-19T08:53:11.583Z,98220.63
2023-02-19T08:55:56.705Z,98231.72
2023-02-19T08:58:42.081Z,98239.34
2023-02-19T09:01:26.831Z,98233.41
2023-02-19T09:04:13.047Z,98233.16
2023-02-19T09:06:58.377Z,98230.03
2023-02-19T09:09:43.416Z,98231.78
2023-02-19T09:12:27.997Z,98222.50
2023-02-19T09:15:12.705Z,98229.28
2023-02-19T09:17:57.626Z,98231.09
2023-02-19T09:20:42.609Z,98232.09
2023-02-19T09:23:28.156Z,98243.72
2023-02-19T09:26:13.378Z,98233.09
2023-02-19T09:28:58.171Z,98227.28
2023-02-19T09:31:43.054Z,98220.13
2023-02-19T09:34:28.816Z,98223.06
2023-02-19T09:37:13.512Z,98228.13
2023-02-19T09:39:58.407Z,98222.88
2023-02-19T09:42:43.573Z,98227.19
2023-02-19T09:45:28.884Z,98220.19
2023-02-19T09:48:13.656Z,98211.59
2023-02-19T09:51:01.033Z,98211.03
2023-02-19T09:53:48.828Z,98212.16
2023-02-19T09:56:34.411Z,98209.16
2023-02-19T09:59:50.230Z,98198.78
2023-02-19T10:02:35.300Z,98194.00
2023-02-19T10:05:25.548Z,98196.38
2023-02-19T10:08:17.911Z,98188.81
2023-02-19T10:11:04.424Z,98183.47
2023-02-19T10:14:01.776Z,98163.25
2023-02-19T10:16:48.944Z,98157.00
2023-02-19T10:19:35.619Z,98159.69
2023-02-19T10:22:24.711Z,98143.66
2023-02-19T10:25:16.024Z,98148.94
2023-02-19T10:28:01.678Z,98146.50
2023-02-19T10:30:53.667Z,98149.28
2023-02-19T10:33:52.889Z,98132.38
2023-02-19T10:36:42.113Z,98149.28
2023-02-19T10:39:34.782Z,98130.69
2023-02-19T10:42:22.014Z,98143.50
2023-02-19T10:45:20.989Z,98128.75
2023-02-19T10:48:18.012Z,98124.91
2023-02-19T10:51:07.466Z,98118.66
2023-02-19T10:54:03.613Z,98122.25
2023-02-19T10:56:48.514Z,98122.53
2023-02-19T10:59:33.460Z,98108.94
2023-02-19T11:02:20.794Z,98111.25
2023-02-19T11:05:15.911Z,98117.16
2023-02-19T11:08:00.795Z,98123.97
2023-02-19T11:10:48.498Z,98115.13
2023-02-19T11:13:37.326Z,98104.91
2023-02-19T11:16:24.419Z,98107.31
2023-02-19T11:19:32.335Z,98117.44
2023-02-19T11:22:46.259Z,98109.91
2023-02-19T11:25:30.917Z,98096.06
2023-02-19T11:28:15.936Z,98094.50
2023-02-19T11:31:22.530Z,98088.09
2023-02-19T11:34:13.696Z,98094.13
2023-02-19T11:37:11.054Z,98086.34
2023-02-19T11:39:55.649Z,98089.44
2023-02-19T11:43:20.171Z,98075.03
2023-02-19T11:46:25.080Z,98069.41
2023-02-19T11:49:18.881Z,98063.75
2023-02-19T11:52:22.897Z,98056.75
2023-02-19T11:55:29.422Z,98064.69
2023-02-19T11:58:26.292Z,98050.84
2023-02-19T12:01:32.728Z,98054.47
2023-02-19T12:04:43.126Z,98045.88
2023-02-19T12:07:52.095Z,98058.66
2023-02-19T12:10:49.294Z,98042.94
2023-02-19T12:13:47.648Z,98049.72
2023-02-19T12:17:07.722Z,98034.34
2023-02-19T12:20:02.746Z,98036.09
2023-02-19T12:23:23.407Z,98037.47
2023-02-19T12:26:25.401Z,98032.38
2023-02-19T12:29:54.061Z,98028.09
2023-02-19T12:33:07.690Z,98027.56
2023-02-19T12:36:08.024Z,98030.09
2023-02-19T12:39:15.208Z,98021.41
2023-02-19T12:42:19.623Z,98013.19
2023-02-19T12:45:31.722Z,98014.47
2023-02-19T12:48:35.301Z,98008.16
2023-02-19T12:51:26.007Z,98009.47
2023-02-19T12:54:18.106Z,98008.47
2023-02-19T12:57:10.459Z,98008.38
2023-02-19T13:00:04.651Z,97999.59
2023-02-19T13:03:00.197Z,98010.47
2023-02-19T13:05:58.822Z,98018.78
2023-02-19T13:09:05.404Z,98017.06
2023-02-19T13:11:58.595Z,98016.22
2023-02-19T13:14:48.495Z,98023.97
2023-02-19T13:17:45.628Z,98012.56
2023-02-19T13:20:51.328Z,98019.34
2023-02-19T13:23:59.311Z,98011.69
2023-02-19T13:27:11.810Z,98024.13
2023-02-19T13:30:24.391Z,98025.03
2023-02-19T13:33:20.981Z,98022.13
2023-02-19T13:36:12.065Z,98028.59
2023-02-19T13:38:56.937Z,98041.13
2023-02-19T13:41:54.214Z,98030.47
2023-02-19T13:44:40.371Z,98053.72
2023-02-19T13:47:54.376Z,98044.25
2023-02-19T13:50:40.162Z,98048.22
2023-02-19T13:53:40.631Z,98060.34
2023-02-19T13:56:34.415Z,98064.06
2023-02-19T13:59:38.053Z,98057.56
2023-02-19T14:02:22.885Z,98053.09
2023-02-19T14:05:11.631Z,98050.28
2023-02-19T14:07:56.296Z,98045.78
2023-02-19T14:10:57.926Z,98057.81
2023-02-19T14:13:52.034Z,98060.91
2023-02-19T14:16:39.562Z,98063.84
2023-02-19T14:19:44.549Z,98069.34
2023-02-19T14:22:48.158Z,98068.94
2023-02-19T14:25:38.041Z,98071.31
2023-02-19T14:28:33.033Z,98070.84
2023-02-19T14:31:28.600Z,98075.66
2023-02-19T14:34:22.407Z,98079.06
2023-02-19T14:37:17.604Z,98078.34
2023-02-19T14:40:03.600Z,98087.22
2023-02-19T14:42:52.138Z,98080.97
2023-02-19T14:45:42.520Z,98084.72
2023-02-19T14:48:37.906Z,98085.91
2023-02-19T14:51:30.928Z,98076.53
2023-02-19T14:54:20.492Z,98085.63
2023-02-19T14:57:30.741Z,98088.56
2023-02-19T15:00:21.540Z,98091.53
2023-02-19T15:03:23.464Z,98094.16
2023-02-19T15:06:18.078Z,98089.88
2023-02-19T15:09:06.883Z,98100.56
2023-02-19T15:11:53.200Z,98107.25
2023-02-19T15:14:39.684Z,98105.50
2023-02-19T15:17:37.695Z,98111.59
2023-02-19T15:20:25.123Z,98117.88
2023-02-19T15:23:20.325Z,98120.88
2023-02-19T15:26:05.024Z,98125.00
2023-02-19T15:28:58.621Z,98126.81
2023-02-19T15:31:46.803Z,98127.59
2023-02-19T15:34:32.335Z,98119.00
2023-02-19T15:37:17.069Z,98133.72
2023-02-19T15:40:06.991Z,98128.22
2023-02-19T15:42:51.982Z,98138.84
2023-02-19T15:45:45.599Z,98138.88
2023-02-19T15:48:39.943Z,98142.59
2023-02-19T15:51:37.370Z,98152.00
2023-02-19T15:54:32.828Z,98149.09
2023-02-19T15:57:22.880Z,98156.91
2023-02-19T16:00:18.618Z,98161.03
2023-02-19T16:03:05.027Z,98172.00
2023-02-19T16:06:11.133Z,98173.75
2023-02-19T16:09:05.217Z,98173.16
2023-02-19T16:11:53.031Z,98181.16
2023-02-19T16:14:38.189Z,98180.22
2023-02-19T16:17:27.281Z,98178.84
2023-02-19T16:20:25.854Z,98198.25
2023-02-19T16:23:17.216Z,98192.78
2023-02-19T16:26:02.854Z,98188.50
2023-02-19T16:28:52.611Z,98189.69
2023-02-19T16:31:39.204Z,98198.50
2023-02-19T16:34:46.412Z,98203.00
2023-02-19T16:37:35.102Z,98203.00
2023-02-19T16:40:20.149Z,98205.97
2023-02-19T16:43:14.568Z,98214.22
2023-02-19T16:46:01.289Z,98216.56
2023-02-19T16:48:46.377Z,98215.78
2023-02-19T16:51:31.129Z,98218.13
2023-02-19T16:54:16.514Z,98231.44
2023-02-19T16:57:01.503Z,98229.28
2023-02-19T16:59:47.172Z,98231.44
2023-02-19T17:02:33.566Z,98237.09
2023-02-19T17:05:20.408Z,98236.69
2023-02-19T17:08:29.066Z,98241.59
2023-02-19T17:11:15.434Z,98236.13
2023-02-19T17:14:00.457Z,98241.41
2023-02-19T17:16:45.144Z,98251.94
2023-02-19T17:19:31.147Z,98247.28
2023-02-19T17:22:17.070Z,98254.91
2023-02-19T17:25:01.711Z,98261.16
2023-02-19T17:27:46.947Z,98255.84
2023-02-19T17:30:32.678Z,98262.09
2023-02-19T17:33:17.748Z,98257.22
2023-02-19T17:36:03.286Z,98264.63
2023-02-19T17:38:48.293Z,98260.34
2023-02-19T17:41:33.035Z,98270.28
2023-02-19T17:44:17.565Z,98274.00
2023-02-19T17:47:02.451Z,98275.94
2023-02-19T17:49:47.181Z,98282.03
2023-02-19T17:52:32.577Z,98287.09
2023-02-19T17:55:18.822Z,98296.28
2023-02-19T17:58:03.465Z,98295.31
2023-02-19T18:00:48.318Z,98296.84
2023-02-19T18:03:32.765Z,98300.16
2023-02-19T18:06:17.873Z,98301.72
2023-02-19T18:09:03.176Z,98299.94
2023-02-19T18:11:48.883Z,98309.91
2023-02-19T18:14:33.723Z,98308.94
2023-02-19T18:17:19.089Z,98310.31
2023-02-19T18:20:05.142Z,98314.63
2023-02-19T18:22:50.189Z,98319.91
2023-02-19T18:25:35.131Z,98310.75
2023-02-19T18:28:19.874Z,98313.50
2023-02-19T18:31:04.956Z,98313.50
2023-02-19T18:33:49.948Z,98315.81
2023-02-19T18:36:34.881Z,98326.50
2023-02-19T18:39:19.935Z,98329.59
2023-02-19T18:42:05.039Z,98330.91
2023-02-19T18:44:50.327Z,98338.44
2023-02-19T18:47:35.306Z,98342.28
2023-02-19T18:50:20.337Z,98347.72
2023-02-19T18:53:05.119Z,98354.66
2023-02-19T18:55:50.681Z,98358.72
2023-02-19T18:58:35.234Z,98371.38
2023-02-19T19:01:20.808Z,98367.63
2023-02-19T19:04:06.119Z,98368.19
2023-02-19T19:06:51.078Z,98368.59
2023-02-19T19:09:36.164Z,98373.44
2023-02-19T19:12:21.215Z,98375.56
2023-02-19T19:15:06.123Z,98371.28
2023-02-19T19:17:51.811Z,98380.38
2023-02-19T19:20:36.651Z,98382.13
2023-02-19T19:23:21.699Z,98385.84
2023-02-19T19:26:07.214Z,98390.34
2023-02-19T19:28:52.482Z,98402.66
2023-02-19T19:31:37.252Z,98395.75
2023-02-19T19:34:22.196Z,98400.84
2023-02-19T19:37:07.034Z,98403.00
2023-02-19T19:39:51.663Z,98407.53
2023-02-19T19:42:36.614Z,98408.69
2023-02-19T19:45:21.970Z,98410.63
2023-02-19T19:48:06.449Z,98420.63
2023-02-19T19:50:51.164Z,98410.91
2023-02-19T19:53:36.333Z,98423.38
2023-02-19T19:56:20.829Z,98426.69
2023-02-19T19:59:05.744Z,98437.00
2023-02-19T20:01:57.752Z,98432.28
2023-02-19T20:04:43.109Z,98444.91
2023-02-19T20:07:28.549Z,98450.25
2023-02-19T20:10:13.865Z,98444.78
2023-02-19T20:12:59.793Z,98449.66
2023-02-19T20:15:44.833Z,98452.75
2023-02-19T20:18:29.847Z,98450.66
2023-02-19T20:21:15.142Z,98458.59
2023-02-19T20:24:00.461Z,98462.69
2023-02-19T20:26:45.293Z,98460.16
2023-02-19T20:29:32.654Z,98465.41
2023-02-19T20:32:20.849Z,98461.50
2023-02-19T20:35:06.235Z,98458.41
2023-02-19T20:37:51.211Z,98460.03
2023-02-19T20:40:35.891Z,98472.31
2023-02-19T20:43:20.272Z,98465.13
2023-02-19T20:46:05.565Z,98471.31
2023-02-19T20:48:51.935Z,98479.47
2023-02-19T20:51:51.628Z,98484.47
2023-02-19T20:54:37.708Z,98485.09
2023-02-19T20:57:23.450Z,98484.91
2023-02-19T21:00:09.154Z,98487.97
2023-02-19T21:02:54.294Z,98490.25
2023-02-19T21:05:39.841Z,98495.75
2023-02-19T21:08:25.047Z,98497.25
2023-02-19T21:11:10.046Z,98486.25
2023-02-19T21:13:58.357Z,98498.56
2023-02-19T21:16:43.713Z,98504.97
2023-02-19T21:19:28.609Z,98500.78
2023-02-19T21:22:13.729Z,98498.50
2023-02-19T21:24:58.276Z,98502.78
2023-02-19T21:27:43.277Z,98508.91
2023-02-19T21:30:28.130Z,98510.00
2023-02-19T21:33:12.689Z,98517.59
2023-02-19T21:35:57.951Z,98514.22
2023-02-19T21:38:42.563Z,98512.03
2023-02-19T21:41:28.292Z,98518.94
2023-02-19T21:44:13.796Z,98518.06
2023-02-19T21:46:59.085Z,98516.44
2023-02-19T21:49:43.649Z,98528.50
2023-02-19T21:52:30.407Z,98526.03
2023-02-19T21:55:15.540Z,98529.53
2023-02-19T21:58:00.082Z,98535.13
2023-02-19T22:00:45.173Z,98533.09
2023-02-19T22:03:29.941Z,98541.31
2023-02-19T22:06:14.936Z,98539.47
2023-02-19T22:09:00.414Z,98538.41
2023-02-19T22:11:44.941Z,98538.16
2023-02-19T22:14:30.576Z,98545.16
2023-02-19T22:17:15.464Z,98539.75
2023-02-19T22:20:00.341Z,98540.94
2023-02-19T22:22:45.655Z,98544.72
2023-02-19T22:25:30.406Z,98537.97
2023-02-19T22:28:15.412Z,98541.47
2023-02-19T22:31:00.180Z,98537.56
2023-02-19T22:33:44.909Z,98551.69
2023-02-19T22:36:32.454Z,98553.50
2023-02-19T22:39:20.893Z,98558.88
2023-02-19T22:42:05.628Z,98555.41
2023-02-19T22:44:50.611Z,98565.19
2023-02-19T22:47:35.562Z,98560.47
2023-02-19T22:50:22.163Z,98551.16
2023-02-19T22:53:07.201Z,98567.59
2023-02-19T22:55:51.890Z,98561.00
2023-02-19T22:58:36.785Z,98567.78
2023-02-19T23:01:21.844Z,98567.94
2023-02-19T23:04:06.766Z,98563.53
2023-02-19T23:06:51.930Z,98570.66
2023-02-19T23:09:37.015Z,98579.09
2023-02-19T23:12:22.656Z,98577.25
2023-02-19T23:15:09.422Z,98570.72
2023-02-19T23:17:54.096Z,98573.09
2023-02-19T23:20:39.429Z,98574.50
2023-02-19T23:23:24.013Z,98582.16
2023-02-19T23:26:09.854Z,98595.56
2023-02-19T23:28:54.760Z,98594.00
2023-02-19T23:31:39.633Z,98590.50
2023-02-19T23:34:24.126Z,98588.75
2023-02-19T23:37:09.227Z,98595.69
2023-02-19T23:39:54.449Z,98602.03
2023-02-19T23:42:38.991Z,98597.22
2023-02-19T23:45:24.130Z,98602.78
2023-02-19T23:48:08.766Z,98600.31
2023-02-19T23:50:53.848Z,98604.91
2023-02-19T23:53:38.856Z,98598.91
2023-02-19T23:56:24.305Z,98612.75
2023-02-19T23:59:09.202Z,98607.88
